Startpagina
METAR-TAF:

METAR-TAF

Vliegvelden :

Bujumbura, Burundi

Luchthaven Bujumbura

breedte: 03-19S, lengte: 029-19E, hoogte: 782 m

METAR: ontbreekt

Tijdstip: 06:12 (04:12 UTC)

Verwachting

Dit bericht is 7 uur en het 12 minuten geleden gemaakt, om 21:00 UTC
Verwachting geldig van 24 om 00 UTC tot 25 om 06 UTC
Wind 8 kt uit het zuiden
Zicht 10 km of meer
Weinig wolken op 3000 ft
Verspreide wolken op 10000 ft
Kans 30%
tussen TE en het MP UTC
Wind 3 kt uit het noorden met uitschieters tot 25 kt
Zicht 10 km of meer
Weinig wolken op 2800 ft, Cumulonimbus.
Verspreide wolken op 3000 ft
Gebroken wolken op 10000 ft
Weinig wolken op 2500 ft
Verspreide wolken op 9000 ft
onweer, regen, regenbuien

TAF: HBBA 232100Z 2400/2506 36000KT 9999 FEW030 SCT100 BECMG2407/2409 18008KT PROB30 TEMPO2413/2417 09015G25KT 5000 TSRA OR SHRA FEW028CB SCT030 BKN100 BECMG2419/2421 00000KT CAVOK BECMG2503/2505 36003KT 9999 FEW025 SCT090

Waarnemingen en weersverwachtingen van meer dan 4000 vliegvelden (METAR en TAF).

De beschikbare stations zijn de gele en rode punten op de kaart.

Ga met uw muis naar het station om de naam te zien.

Klik dan om waarnemingen en weersverwachtingen te zien.

kaart wijzigen: klik op de groene knoppen met een zwart kruis om in te zoomen, op de groene knop met een streepje om uit te zoomen of op de groene pijlen voor aangrenzende kaarten.


METAR-TAF: